Time;durP1;ratioP1;P1;durP2;ratioP2;P2;SDS_P1;SDS_P2;PMS_P1;PMS_P2;Temp;Humidity;BMP_temperature;BMP_pressure;BME280_temperature;BME280_humidity;BME280_pressure;Samples;Min_cycle;Max_cycle;Signal;HPM_P1;HPM_P2
2022/10/11 00:02:26;;;;;;;;;;;;;;;;;;;;;
2022/10/11 00:05:37;;;;;;;25.20;10.65;;;12.00;99.90;;;;;;5827065;24;20049;-93
2022/10/11 00:08:36;;;;;;;20.65;11.25;;;12.00;99.90;;;;;;5902472;24;20034;-92
2022/10/11 00:12:10;;;;;;;27.85;12.75;;;12.10;99.90;;;;;;5822991;24;20037;-93
2022/10/11 00:15:58;;;;;;;;;;;;;;;;;;;;;
2022/10/11 00:19:20;;;;;;;;;;;;;;;;;;;;;
2022/10/11 00:22:40;;;;;;;;;;;;;;;;;;;;;
2022/10/11 00:26:12;;;;;;;34.17;14.02;;;12.40;99.90;;;;;;5991605;23;20028;-93
2022/10/11 00:29:10;;;;;;;28.75;12.25;;;12.40;99.90;;;;;;6103887;23;20062;-93
2022/10/11 00:32:20;;;;;;;35.17;12.10;;;12.40;99.90;;;;;;6103606;23;20480;-92
2022/10/11 00:35:17;;;;;;;23.08;12.63;;;12.40;99.90;;;;;;6082391;23;20045;-93
2022/10/11 00:38:18;;;;;;;;;;;;;;;;;;;;;
2022/10/11 00:41:18;;;;;;;26.77;13.55;;;12.40;99.90;;;;;;6114487;23;20022;-91
2022/10/11 00:44:17;;;;;;;22.70;12.45;;;12.40;99.90;;;;;;6116432;23;20057;-93
2022/10/11 00:47:29;;;;;;;23.92;11.95;;;12.40;99.90;;;;;;6093603;23;20023;-92
2022/10/11 00:50:47;;;;;;;27.73;12.48;;;12.50;99.90;;;;;;6016348;23;20101;-84
2022/10/11 00:53:34;;;;;;;25.10;12.27;;;12.50;99.90;;;;;;6009597;23;20024;-84
2022/10/11 00:56:30;;;;;;;22.85;12.75;;;12.50;99.90;;;;;;6010639;23;20027;-84
2022/10/11 00:59:24;;;;;;;27.10;11.95;;;12.50;99.90;;;;;;6010823;23;20033;-85
2022/10/11 01:02:12;;;;;;;24.80;11.38;;;12.50;99.90;;;;;;6012630;23;20092;-84
2022/10/11 01:05:00;;;;;;;20.92;10.95;;;12.60;99.90;;;;;;6011604;23;20042;-85
2022/10/11 01:08:07;;;;;;;19.33;10.57;;;12.70;99.90;;;;;;6098533;23;20041;-84
2022/10/11 01:10:57;;;;;;;24.75;11.38;;;12.70;99.90;;;;;;6098025;23;20105;-84
2022/10/11 01:14:05;;;;;;;25.70;12.60;;;12.80;99.90;;;;;;6097318;23;20616;-84
2022/10/11 01:17:08;;;;;;;32.70;14.27;;;12.80;99.90;;;;;;6097750;23;20117;-84
2022/10/11 01:20:10;;;;;;;31.20;12.90;;;12.80;99.90;;;;;;6097594;23;20057;-85
2022/10/11 01:23:14;;;;;;;27.50;13.48;;;12.80;99.90;;;;;;6077890;23;20030;-84
2022/10/11 01:26:13;;;;;;;26.58;13.25;;;12.80;99.90;;;;;;6096617;23;20037;-84
2022/10/11 01:29:12;;;;;;;36.28;13.27;;;12.80;99.90;;;;;;6098510;23;20268;-85
2022/10/11 01:32:12;;;;;;;28.10;12.73;;;12.80;99.90;;;;;;6097028;23;20026;-84
2022/10/11 01:35:07;;;;;;;29.80;12.07;;;12.90;99.90;;;;;;6097079;23;20121;-84
2022/10/11 01:38:14;;;;;;;26.40;12.98;;;12.90;99.90;;;;;;6096131;23;20058;-85
2022/10/11 01:41:08;;;;;;;30.40;13.10;;;12.90;99.90;;;;;;6075864;23;20037;-84
2022/10/11 01:43:59;;;;;;;31.35;12.95;;;12.90;99.90;;;;;;6076830;23;20058;-84
2022/10/11 01:46:46;;;;;;;28.98;12.75;;;12.90;99.90;;;;;;6098298;23;20097;-85
2022/10/11 01:49:33;;;;;;;28.10;12.10;;;12.90;99.90;;;;;;6097866;23;20109;-85
2022/10/11 01:52:21;;;;;;;25.83;11.85;;;12.90;99.90;;;;;;6095469;23;20063;-84
2022/10/11 01:55:43;;;;;;;31.70;13.00;;;12.90;99.90;;;;;;6097301;23;20415;-84
2022/10/11 01:58:43;;;;;;;29.75;12.85;;;12.90;99.90;;;;;;5980660;24;20091;-83
2022/10/11 02:02:03;;;;;;;38.45;14.00;;;13.00;99.90;;;;;;6097126;23;20018;-84
2022/10/11 02:05:22;;;;;;;23.50;12.00;;;12.90;99.90;;;;;;6097564;23;20027;-84
2022/10/11 02:08:18;;;;;;;31.35;13.75;;;13.00;99.90;;;;;;6096813;23;20027;-84
2022/10/11 02:11:27;;;;;;;33.33;14.27;;;13.00;99.90;;;;;;6076982;23;20029;-84
2022/10/11 02:14:19;;;;;;;23.45;11.65;;;12.90;99.90;;;;;;6097435;23;20098;-84
2022/10/11 02:17:11;;;;;;;27.92;12.07;;;13.00;99.90;;;;;;6096025;23;20436;-85
2022/10/11 02:20:04;;;;;;;25.20;12.00;;;13.00;99.90;;;;;;6096342;23;20367;-84
2022/10/11 02:22:57;;;;;;;32.67;11.63;;;13.00;99.90;;;;;;6097986;23;20102;-84
2022/10/11 02:25:46;;;;;;;26.00;11.07;;;13.00;99.90;;;;;;6076298;23;20056;-85
2022/10/11 02:28:36;;;;;;;22.90;11.00;;;13.00;99.90;;;;;;6096531;23;20101;-84
2022/10/11 02:31:29;;;;;;;32.47;12.60;;;13.00;99.90;;;;;;6096342;23;20027;-85
2022/10/11 02:34:39;;;;;;;26.98;13.60;;;13.00;99.90;;;;;;6097551;23;20106;-85
2022/10/11 02:37:35;;;;;;;33.35;14.02;;;13.00;99.90;;;;;;6096477;23;20030;-85
2022/10/11 02:40:35;;;;;;;36.55;15.98;;;13.00;99.90;;;;;;6076014;23;20113;-84
2022/10/11 02:43:34;;;;;;;26.05;13.57;;;12.90;99.90;;;;;;6096760;23;20053;-83
2022/10/11 02:46:23;;;;;;;31.45;14.95;;;12.90;99.90;;;;;;6097222;23;20325;-84
2022/10/11 02:49:14;;;;;;;30.35;14.05;;;12.90;99.90;;;;;;6096802;23;20382;-85
2022/10/11 02:52:03;;;;;;;40.13;16.90;;;12.90;99.90;;;;;;6078687;23;20054;-85
2022/10/11 02:54:50;;;;;;;45.42;18.92;;;12.90;99.90;;;;;;6077284;23;20026;-85
2022/10/11 02:57:38;;;;;;;38.72;17.88;;;12.90;99.90;;;;;;6097760;23;20026;-85
2022/10/11 03:00:27;;;;;;;38.13;19.58;;;12.90;99.90;;;;;;6076334;23;20058;-85
2022/10/11 03:03:14;;;;;;;45.22;21.13;;;12.90;99.90;;;;;;6098698;23;20113;-85
2022/10/11 03:06:07;;;;;;;40.15;20.30;;;12.90;99.90;;;;;;6076229;23;20030;-85
2022/10/11 03:08:55;;;;;;;40.03;19.92;;;12.90;99.90;;;;;;6076101;23;20341;-85
2022/10/11 03:11:42;;;;;;;45.75;19.67;;;12.80;99.90;;;;;;6096987;23;20027;-85
2022/10/11 03:14:29;;;;;;;33.65;18.20;;;12.80;99.90;;;;;;6097833;23;20050;-85
2022/10/11 03:17:16;;;;;;;34.97;18.33;;;12.80;99.90;;;;;;6095815;23;20052;-85
2022/10/11 03:20:25;;;;;;;40.67;18.45;;;12.80;99.90;;;;;;6097041;23;20430;-86
2022/10/11 03:23:13;;;;;;;36.42;17.92;;;12.60;99.90;;;;;;6096422;23;20030;-85
2022/10/11 03:26:00;;;;;;;40.58;18.02;;;12.50;99.90;;;;;;6096389;23;20105;-85
2022/10/11 03:28:48;;;;;;;41.50;19.77;;;12.30;99.90;;;;;;6098321;23;20334;-85
2022/10/11 03:31:37;;;;;;;43.83;21.30;;;12.30;99.90;;;;;;6098135;23;20055;-83
2022/10/11 03:34:24;;;;;;;56.30;23.30;;;12.20;99.90;;;;;;6100017;23;20041;-86
2022/10/11 03:37:11;;;;;;;73.70;29.23;;;12.20;99.90;;;;;;6099100;23;20054;-86
2022/10/11 03:39:58;;;;;;;69.88;30.90;;;12.30;99.90;;;;;;6098448;23;20026;-86
2022/10/11 03:42:45;;;;;;;92.95;35.20;;;12.30;99.90;;;;;;6099326;23;20037;-85
2022/10/11 03:45:33;;;;;;;82.95;33.85;;;12.30;99.90;;;;;;6099187;23;20109;-85
2022/10/11 03:48:25;;;;;;;91.93;39.80;;;12.30;99.90;;;;;;6098811;23;20601;-86
2022/10/11 03:51:13;;;;;;;107.55;40.85;;;12.30;99.90;;;;;;6098912;23;20026;-84
2022/10/11 03:54:01;;;;;;;109.40;44.20;;;12.30;99.90;;;;;;6078423;23;20033;-85
2022/10/11 03:56:48;;;;;;;108.70;43.97;;;12.30;99.90;;;;;;6099424;23;20036;-85
2022/10/11 03:59:35;;;;;;;113.90;47.13;;;12.30;99.90;;;;;;6098869;23;20034;-87
2022/10/11 04:02:22;;;;;;;119.97;47.55;;;12.40;99.90;;;;;;6100224;23;20030;-87
2022/10/11 04:05:11;;;;;;;118.55;47.60;;;12.30;99.90;;;;;;6102914;23;20068;-85
2022/10/11 04:07:58;;;;;;;122.60;47.58;;;12.30;99.90;;;;;;6083645;23;20410;-85
2022/10/11 04:10:47;;;;;;;117.13;46.78;;;12.30;99.90;;;;;;6080988;23;20379;-85
2022/10/11 04:13:35;;;;;;;105.13;45.67;;;12.30;99.90;;;;;;6105773;23;20022;-85
2022/10/11 04:16:22;;;;;;;120.72;49.28;;;12.30;99.90;;;;;;6114061;23;20022;-85
2022/10/11 04:19:09;;;;;;;124.25;48.95;;;12.30;99.90;;;;;;6112946;23;20077;-86
2022/10/11 04:21:57;;;;;;;122.22;48.33;;;12.30;99.90;;;;;;6112245;23;20083;-85
2022/10/11 04:24:44;;;;;;;119.28;47.97;;;12.20;99.90;;;;;;6096469;23;20040;-85
2022/10/11 04:27:31;;;;;;;132.05;50.38;;;12.30;99.90;;;;;;6119538;23;20033;-84
2022/10/11 04:30:18;;;;;;;125.72;48.15;;;12.30;99.90;;;;;;6111671;23;20070;-84
2022/10/11 04:33:05;;;;;;;119.47;48.60;;;12.30;99.90;;;;;;6107931;23;20027;-84
2022/10/11 04:35:54;;;;;;;139.18;52.22;;;12.30;99.90;;;;;;6099756;23;20057;-83
2022/10/11 04:38:42;;;;;;;133.63;50.85;;;12.30;99.90;;;;;;6099085;23;20019;-83
2022/10/11 04:41:29;;;;;;;119.07;48.47;;;12.30;99.90;;;;;;6099108;23;20382;-81
2022/10/11 04:44:16;;;;;;;129.38;50.58;;;12.40;99.90;;;;;;6078315;23;20101;-82
2022/10/11 04:47:04;;;;;;;123.63;49.20;;;12.40;99.90;;;;;;6077803;23;20111;-83
2022/10/11 04:49:51;;;;;;;140.35;49.00;;;12.30;99.90;;;;;;6097062;23;20117;-83
2022/10/11 04:52:38;;;;;;;124.05;49.63;;;12.30;99.90;;;;;;6096806;23;20395;-83
2022/10/11 04:55:25;;;;;;;148.20;50.10;;;12.30;99.90;;;;;;6098291;23;20302;-84
2022/10/11 04:58:12;;;;;;;136.82;48.92;;;12.20;99.90;;;;;;6096743;23;20037;-84
2022/10/11 05:00:59;;;;;;;125.20;48.85;;;12.20;99.90;;;;;;6097821;23;20036;-85
2022/10/11 05:03:50;;;;;;;118.95;47.22;;;12.30;99.90;;;;;;6097651;23;20030;-83
2022/10/11 05:06:37;;;;;;;108.47;45.60;;;12.30;99.90;;;;;;6097713;23;20101;-84
2022/10/11 05:09:24;;;;;;;117.07;46.20;;;12.30;99.90;;;;;;6098228;23;20029;-84
2022/10/11 05:12:12;;;;;;;110.78;46.38;;;12.30;99.90;;;;;;6097441;23;20322;-83
2022/10/11 05:14:59;;;;;;;108.85;45.03;;;12.30;99.90;;;;;;6096841;23;20101;-83
2022/10/11 05:17:47;;;;;;;110.60;44.67;;;12.30;99.90;;;;;;6096637;23;20109;-83
2022/10/11 05:20:34;;;;;;;111.28;46.13;;;12.30;99.90;;;;;;6078318;23;20090;-84
2022/10/11 05:23:21;;;;;;;109.22;44.60;;;12.30;99.90;;;;;;6097335;23;20058;-84
2022/10/11 05:26:08;;;;;;;110.90;44.80;;;12.30;99.90;;;;;;6097320;23;20026;-83
2022/10/11 05:28:56;;;;;;;122.75;44.95;;;12.30;99.90;;;;;;6097084;23;20315;-83
2022/10/11 05:31:45;;;;;;;121.65;45.20;;;12.30;99.90;;;;;;6093627;23;20462;-83
2022/10/11 05:34:32;;;;;;;100.72;43.75;;;12.30;99.90;;;;;;6075593;23;20371;-87
2022/10/11 05:37:22;;;;;;;104.45;44.35;;;12.30;99.90;;;;;;6098266;23;20019;-84
2022/10/11 05:40:10;;;;;;;111.68;44.42;;;12.30;99.90;;;;;;6093703;23;20085;-85
2022/10/11 05:42:57;;;;;;;110.82;46.25;;;12.40;99.90;;;;;;6095881;23;20037;-86
2022/10/11 05:45:45;;;;;;;118.10;45.00;;;12.40;99.90;;;;;;6094947;23;20034;-86
2022/10/11 05:48:35;;;;;;;108.82;44.08;;;12.30;99.90;;;;;;6097020;23;20304;-85
2022/10/11 05:51:24;;;;;;;114.65;47.85;;;12.30;99.90;;;;;;6096209;23;20037;-85
2022/10/11 05:54:11;;;;;;;114.90;45.10;;;12.30;99.90;;;;;;6098238;23;20056;-85
2022/10/11 05:56:58;;;;;;;115.47;46.03;;;12.40;99.90;;;;;;6075944;23;20339;-84
2022/10/11 05:59:45;;;;;;;106.80;46.65;;;12.40;99.90;;;;;;6076452;23;20039;-84
2022/10/11 06:02:35;;;;;;;101.82;44.72;;;12.40;99.90;;;;;;6097427;23;20026;-84
2022/10/11 06:05:23;;;;;;;101.88;43.70;;;12.50;99.90;;;;;;6058683;23;20110;-85
2022/10/11 06:08:15;;;;;;;113.10;46.60;;;12.50;99.90;;;;;;6095867;23;20040;-85
2022/10/11 06:11:20;;;;;;;116.25;45.30;;;12.50;99.90;;;;;;6095147;23;20057;-86
2022/10/11 06:14:08;;;;;;;103.88;43.80;;;12.50;99.90;;;;;;6077819;23;20046;-86
2022/10/11 06:16:55;;;;;;;108.07;45.75;;;12.50;99.90;;;;;;6097972;23;20112;-84
2022/10/11 06:19:42;;;;;;;107.40;43.90;;;12.50;99.90;;;;;;6096473;23;20101;-85
2022/10/11 06:22:29;;;;;;;113.32;44.05;;;12.50;99.90;;;;;;6096570;23;20097;-84
2022/10/11 06:25:16;;;;;;;94.63;42.50;;;12.60;99.90;;;;;;6097978;23;20023;-85
2022/10/11 06:28:03;;;;;;;101.30;42.83;;;12.60;99.90;;;;;;6097136;23;20060;-85
2022/10/11 06:30:51;;;;;;;92.78;42.78;;;12.60;99.90;;;;;;6097664;23;20038;-83
2022/10/11 06:33:39;;;;;;;104.70;42.53;;;12.60;99.90;;;;;;6095337;23;20026;-86
2022/10/11 06:36:28;;;;;;;99.85;42.80;;;12.60;99.90;;;;;;6097406;23;20026;-85
2022/10/11 06:39:15;;;;;;;96.55;42.17;;;12.60;99.90;;;;;;6098775;23;20081;-87
2022/10/11 06:42:02;;;;;;;91.25;40.45;;;12.60;99.90;;;;;;6101621;23;20030;-86
2022/10/11 06:44:49;;;;;;;116.15;44.67;;;12.70;99.90;;;;;;6083566;23;20113;-86
2022/10/11 06:47:36;;;;;;;90.68;43.05;;;12.70;99.90;;;;;;6078461;23;20026;-84
2022/10/11 06:50:24;;;;;;;96.25;43.15;;;12.70;99.90;;;;;;6097872;23;20023;-86
2022/10/11 06:53:31;;;;;;;99.45;41.53;;;12.70;99.90;;;;;;6097557;23;20033;-87
2022/10/11 06:56:19;;;;;;;93.80;43.25;;;12.60;99.90;;;;;;6096095;23;20034;-87
2022/10/11 06:59:06;;;;;;;107.65;42.42;;;12.60;99.90;;;;;;6097132;23;20027;-86
2022/10/11 07:01:54;;;;;;;107.82;45.05;;;12.60;99.90;;;;;;6096457;23;20124;-87
2022/10/11 07:04:41;;;;;;;90.45;41.42;;;12.60;99.90;;;;;;6099701;23;20034;-85
2022/10/11 07:07:29;;;;;;;106.40;42.17;;;12.60;99.90;;;;;;6098755;23;20053;-85
2022/10/11 07:10:16;;;;;;;87.95;40.40;;;12.60;99.90;;;;;;6098328;23;20037;-86
2022/10/11 07:13:03;;;;;;;93.72;40.22;;;12.60;99.90;;;;;;6100168;23;20419;-86
2022/10/11 07:15:50;;;;;;;91.72;40.17;;;12.50;99.90;;;;;;6080989;23;20034;-86
2022/10/11 07:18:38;;;;;;;93.45;40.63;;;12.50;99.90;;;;;;6098221;23;20030;-83
2022/10/11 07:21:29;;;;;;;85.55;39.50;;;12.50;99.90;;;;;;6076953;23;20041;-81
2022/10/11 07:24:16;;;;;;;89.00;38.85;;;12.50;99.90;;;;;;6098901;23;20030;-84
2022/10/11 07:27:03;;;;;;;91.45;38.97;;;12.50;99.90;;;;;;6097273;23;20037;-85
2022/10/11 07:29:55;;;;;;;76.28;36.05;;;12.50;99.90;;;;;;6104298;23;20034;-90
2022/10/11 07:32:42;;;;;;;87.57;37.63;;;12.50;99.90;;;;;;6106512;23;20050;-90
2022/10/11 07:35:29;;;;;;;78.40;37.63;;;12.60;99.90;;;;;;6084614;23;20041;-88
2022/10/11 07:38:17;;;;;;;73.57;35.85;;;12.60;99.90;;;;;;6103706;23;20036;-90
2022/10/11 07:41:05;;;;;;;75.28;35.17;;;12.70;99.90;;;;;;6109155;23;20054;-87
2022/10/11 07:43:53;;;;;;;78.07;36.03;;;12.80;99.90;;;;;;6086770;23;20311;-87
2022/10/11 07:46:43;;;;;;;72.90;33.85;;;12.80;99.90;;;;;;6101831;23;20034;-88
2022/10/11 07:49:30;;;;;;;65.30;32.92;;;12.90;99.90;;;;;;6104746;23;20030;-89
2022/10/11 07:52:20;;;;;;;72.72;33.05;;;12.90;99.90;;;;;;6105205;23;20387;-86
2022/10/11 07:55:07;;;;;;;58.17;30.88;;;13.00;99.90;;;;;;6079461;23;20034;-88
2022/10/11 07:57:55;;;;;;;60.88;31.83;;;13.10;99.90;;;;;;6078651;23;20037;-86
2022/10/11 08:00:43;;;;;;;57.05;30.40;;;13.20;99.90;;;;;;6100527;23;20030;-86
2022/10/11 08:03:30;;;;;;;61.90;30.58;;;13.20;99.90;;;;;;6104272;23;20094;-89
2022/10/11 08:06:21;;;;;;;54.63;29.23;;;13.20;99.90;;;;;;6079316;23;20045;-88
2022/10/11 08:09:11;;;;;;;60.05;28.92;;;13.30;99.90;;;;;;6099891;23;20026;-88
2022/10/11 08:12:01;;;;;;;54.92;27.65;;;13.50;99.90;;;;;;6099257;23;20295;-88
2022/10/11 08:14:48;;;;;;;55.28;29.33;;;13.60;18.00;;;;;;6101303;23;20022;-87
2022/10/11 08:17:35;;;;;;;51.78;26.33;;;13.60;99.90;;;;;;6085696;23;20027;-87
2022/10/11 08:20:25;;;;;;;48.80;25.83;;;13.60;1.00;;;;;;6105893;23;20058;-87
2022/10/11 08:23:15;;;;;;;57.25;27.58;;;13.60;99.90;;;;;;6108438;23;20026;-87
2022/10/11 08:26:05;;;;;;;42.63;25.08;;;13.60;1.00;;;;;;6087140;23;20038;-86
2022/10/11 08:28:53;;;;;;;44.75;24.85;;;13.80;99.90;;;;;;6108635;23;20050;-88
2022/10/11 08:31:40;;;;;;;51.67;24.55;;;14.20;1.00;;;;;;6107339;23;20034;-89
2022/10/11 08:34:28;;;;;;;51.28;23.02;;;14.80;99.90;;;;;;6105929;23;20077;-87
2022/10/11 08:37:33;;;;;;;40.08;20.42;;;15.40;99.90;;;;;;6084307;23;20019;-88
2022/10/11 08:40:22;;;;;;;35.03;19.25;;;15.90;99.90;;;;;;6116172;23;20034;-89
2022/10/11 08:43:27;;;;;;;33.17;17.73;;;16.40;99.90;;;;;;6091899;23;20065;-91
2022/10/11 08:46:25;;;;;;;32.95;18.35;;;16.50;1.00;;;;;;6087198;23;20046;-91
2022/10/11 08:49:25;;;;;;;35.42;17.50;;;16.50;99.90;;;;;;6096044;23;20022;-91
2022/10/11 08:52:47;;;;;;;34.13;17.25;;;16.30;99.90;;;;;;6093837;23;20062;-91
2022/10/11 08:55:48;;;;;;;33.83;17.65;;;16.20;99.90;;;;;;6092211;23;20018;-92
2022/10/11 08:58:59;;;;;;;35.50;16.70;;;16.20;91.80;;;;;;6114593;23;20097;-92
2022/10/11 09:02:28;;;;;;;34.08;16.58;;;16.00;62.90;;;;;;6108030;23;20034;-88
2022/10/11 09:06:05;;;;;;;29.15;17.00;;;16.00;99.90;;;;;;6087111;23;20117;-86
2022/10/11 09:09:05;;;;;;;29.00;17.55;;;15.90;99.90;;;;;;6085157;23;20026;-89
2022/10/11 09:12:10;;;;;;;33.08;17.15;;;15.80;67.10;;;;;;6110207;23;20022;-88
2022/10/11 09:15:13;;;;;;;30.40;17.80;;;15.80;81.20;;;;;;6084653;23;20026;-88
2022/10/11 09:18:23;;;;;;;;;;;15.60;50.00;;;;;;6106648;23;20023;-87
2022/10/11 09:21:48;;;;;;;45.67;18.58;;;15.70;80.10;;;;;;6102549;23;20199;-85
2022/10/11 09:24:46;;;;;;;34.38;17.60;;;15.30;77.70;;;;;;6085699;23;20034;-87
2022/10/11 09:27:48;;;;;;;32.53;18.63;;;15.20;99.90;;;;;;6100106;23;20030;-87
2022/10/11 09:30:55;;;;;;;42.33;19.77;;;15.10;99.90;;;;;;6100232;23;20033;-88
2022/10/11 09:33:46;;;;;;;52.42;23.25;;;14.90;99.90;;;;;;6082263;23;20322;-85
2022/10/11 09:37:00;;;;;;;54.85;23.35;;;14.60;99.90;;;;;;6097953;23;20070;-87
2022/10/11 09:39:57;;;;;;;41.40;22.88;;;14.40;99.90;;;;;;6105375;23;20200;-88
2022/10/11 09:42:45;;;;;;;44.25;22.63;;;14.30;99.90;;;;;;6085208;23;20062;-87
2022/10/11 09:45:32;;;;;;;42.75;22.73;;;14.30;99.90;;;;;;6104393;23;20057;-85
2022/10/11 09:48:24;;;;;;;40.35;21.63;;;14.20;99.90;;;;;;6101971;23;20114;-86
2022/10/11 09:51:20;;;;;;;37.83;19.65;;;14.30;1.00;;;;;;6101734;23;20089;-86
2022/10/11 09:54:10;;;;;;;41.03;21.27;;;14.40;1.00;;;;;;6107529;23;20086;-90
2022/10/11 09:56:57;;;;;;;38.17;21.27;;;14.50;1.00;;;;;;6105200;23;20048;-90
2022/10/11 10:00:05;;;;;;;44.33;20.85;;;14.50;99.90;;;;;;6101268;23;20030;-90
2022/10/11 10:03:01;;;;;;;44.53;21.13;;;14.50;99.90;;;;;;6077837;23;20079;-87
2022/10/11 10:06:06;;;;;;;39.80;19.88;;;14.60;99.90;;;;;;6076676;23;20054;-88
2022/10/11 10:09:02;;;;;;;35.88;19.95;;;14.70;99.90;;;;;;6098677;23;20053;-89
2022/10/11 10:11:49;;;;;;;33.40;18.98;;;14.90;99.90;;;;;;6076502;23;20037;-88
2022/10/11 10:14:36;;;;;;;35.83;17.63;;;14.90;99.90;;;;;;6076934;23;20026;-87
2022/10/11 10:17:28;;;;;;;37.78;17.92;;;14.90;99.90;;;;;;6098597;23;20030;-85
2022/10/11 10:20:35;;;;;;;45.45;22.10;;;14.90;99.90;;;;;;6099158;23;20026;-85
2022/10/11 10:23:32;;;;;;;41.20;20.70;;;14.60;99.90;;;;;;6077970;23;20054;-86
2022/10/11 10:26:25;;;;;;;37.97;20.02;;;14.40;99.90;;;;;;6096791;23;20037;-86
2022/10/11 10:29:12;;;;;;;;;;;14.50;99.90;;;;;;6057211;23;20026;-85
2022/10/11 10:32:22;;;;;;;47.28;22.05;;;14.40;99.90;;;;;;6096835;23;19921;-84
2022/10/11 10:35:37;;;;;;;39.53;20.35;;;14.60;99.90;;;;;;6076704;23;20026;-85
2022/10/11 10:38:27;;;;;;;40.25;20.60;;;14.50;99.90;;;;;;6097192;23;20054;-86
2022/10/11 10:41:18;;;;;;;41.92;20.30;;;14.50;99.90;;;;;;6096545;23;20026;-87
2022/10/11 10:44:09;;;;;;;33.03;19.10;;;14.50;99.90;;;;;;6097420;23;20030;-86
2022/10/11 10:47:08;;;;;;;36.33;20.05;;;14.50;99.90;;;;;;6075751;23;20068;-86
2022/10/11 10:50:07;;;;;;;43.05;19.92;;;14.50;99.90;;;;;;6096715;23;20129;-87
2022/10/11 10:53:16;;;;;;;40.25;20.67;;;14.50;99.90;;;;;;6102371;23;20057;-87
2022/10/11 10:56:22;;;;;;;37.80;20.42;;;14.40;99.90;;;;;;6087378;23;20033;-88
2022/10/11 10:59:31;;;;;;;40.70;19.98;;;14.40;99.90;;;;;;6094427;23;20093;-85
2022/10/11 11:02:28;;;;;;;41.22;19.73;;;14.30;99.90;;;;;;6087058;23;20065;-87
2022/10/11 11:06:04;;;;;;;38.92;20.45;;;14.30;99.90;;;;;;6107836;23;20030;-88
2022/10/11 11:09:25;;;;;;;40.20;21.17;;;14.40;99.90;;;;;;6078126;23;20030;-88
2022/10/11 11:12:48;;;;;;;43.67;21.67;;;14.20;99.90;;;;;;6099691;23;20088;-89
2022/10/11 11:16:00;;;;;;;38.50;20.38;;;14.30;99.90;;;;;;6097917;23;20097;-89
2022/10/11 11:18:48;;;;;;;41.97;20.80;;;14.30;99.90;;;;;;6077882;23;20032;-87
2022/10/11 11:21:56;;;;;;;38.83;20.10;;;14.40;99.90;;;;;;6095703;23;20125;-87
2022/10/11 11:25:20;;;;;;;37.47;17.83;;;14.60;99.90;;;;;;6077378;23;20336;-87
2022/10/11 11:28:20;;;;;;;49.85;19.90;;;14.70;99.90;;;;;;6096514;23;20348;-87
2022/10/11 11:31:15;;;;;;;37.38;19.50;;;14.60;99.90;;;;;;6098160;23;20113;-87
2022/10/11 11:34:21;;;;;;;40.53;20.15;;;14.40;99.90;;;;;;6097899;23;20038;-88
2022/10/11 11:37:39;;;;;;;45.42;19.83;;;14.30;99.90;;;;;;6075490;23;20162;-88
2022/10/11 11:40:46;;;;;;;43.25;20.48;;;14.30;99.90;;;;;;6097014;23;20097;-87
2022/10/11 11:43:36;;;;;;;34.35;18.92;;;14.30;99.90;;;;;;6077234;23;20306;-86
2022/10/11 11:46:28;;;;;;;34.17;18.92;;;14.30;99.90;;;;;;6095870;23;20053;-86
2022/10/11 11:49:23;;;;;;;39.15;19.65;;;14.30;99.90;;;;;;6097856;23;20113;-88
2022/10/11 11:52:21;;;;;;;34.70;18.05;;;14.40;99.90;;;;;;6079394;23;20030;-87
2022/10/11 11:55:08;;;;;;;32.05;18.05;;;14.50;99.90;;;;;;6101125;23;20023;-85
2022/10/11 11:57:58;;;;;;;33.97;16.75;;;14.50;99.90;;;;;;6097735;23;20037;-87
2022/10/11 12:01:15;;;;;;;39.70;17.67;;;14.60;99.90;;;;;;6079365;23;20022;-87
2022/10/11 12:08:32;;;;;;;33.30;16.38;;;15.00;99.90;;;;;;6092335;23;20014;-88
2022/10/11 12:11:26;;;;;;;33.78;15.55;;;15.30;99.90;;;;;;6100272;23;20030;-89
2022/10/11 12:14:32;;;;;;;36.22;14.65;;;15.50;99.90;;;;;;6061592;23;20022;-88
2022/10/11 12:17:22;;;;;;;27.60;13.70;;;16.00;96.80;;;;;;6078595;23;20512;-91
2022/10/11 12:20:35;;;;;;;22.20;11.82;;;16.50;2.70;;;;;;6079103;23;20054;-88
2022/10/11 12:23:29;;;;;;;30.10;13.02;;;16.60;1.00;;;;;;6078279;23;20105;-87
2022/10/11 12:26:17;;;;;;;30.60;13.15;;;16.60;1.00;;;;;;6098413;23;20045;-87
2022/10/11 12:29:39;;;;;;;26.55;12.60;;;16.70;1.00;;;;;;6077762;23;20418;-86
2022/10/11 12:32:27;;;;;;;24.02;12.15;;;16.60;1.00;;;;;;6082360;23;20032;-88
2022/10/11 12:35:34;;;;;;;24.10;12.57;;;16.40;1.00;;;;;;6103386;23;20085;-86
2022/10/11 12:38:32;;;;;;;29.95;13.55;;;16.40;1.00;;;;;;6076755;23;20030;-88
2022/10/11 12:41:52;;;;;;;26.67;13.88;;;16.20;1.00;;;;;;6099323;23;20464;-88
2022/10/11 12:45:01;;;;;;;34.25;14.07;;;16.10;1.00;;;;;;6099816;23;20303;-87
2022/10/11 12:48:18;;;;;;;35.15;14.25;;;15.90;1.00;;;;;;6078086;23;20178;-90
2022/10/11 12:51:28;;;;;;;29.85;16.13;;;15.70;1.00;;;;;;6099719;23;20030;-88
2022/10/11 12:54:37;;;;;;;26.25;14.75;;;15.50;1.00;;;;;;6098553;23;20037;-88
2022/10/11 12:57:58;;;;;;;33.30;15.15;;;15.30;1.00;;;;;;6082532;23;20034;-88
2022/10/11 13:00:54;;;;;;;25.85;14.80;;;15.10;1.00;;;;;;6099104;23;20038;-88
2022/10/11 13:03:48;;;;;;;25.55;14.32;;;15.00;1.00;;;;;;6077497;23;20105;-88
2022/10/11 13:06:53;;;;;;;29.15;14.13;;;15.00;1.00;;;;;;6098721;23;20033;-87
2022/10/11 13:09:43;;;;;;;24.70;12.77;;;15.00;1.00;;;;;;6100161;23;20088;-88
2022/10/11 13:12:40;;;;;;;24.02;13.15;;;15.20;1.00;;;;;;6080956;23;20034;-88
2022/10/11 13:15:28;;;;;;;;;;;15.40;1.00;;;;;;6079801;23;20054;-88
2022/10/11 13:18:21;;;;;;;29.30;13.02;;;15.40;1.00;;;;;;6081009;23;20316;-90
2022/10/11 13:21:38;;;;;;;29.17;12.95;;;15.50;1.00;;;;;;6097837;23;20022;-90
2022/10/11 13:24:37;;;;;;;25.08;13.50;;;15.50;1.00;;;;;;6100698;23;20026;-87
2022/10/11 13:27:26;;;;;;;21.60;11.60;;;15.50;1.00;;;;;;6079363;23;20102;-84
2022/10/11 13:30:29;;;;;;;22.00;12.57;;;15.70;1.00;;;;;;6099448;23;20418;-83
2022/10/11 13:33:38;;;;;;;22.13;12.85;;;15.80;1.00;;;;;;6078287;23;20023;-85
2022/10/11 13:36:26;;;;;;;23.73;12.63;;;16.00;1.00;;;;;;6076618;23;20485;-85
2022/10/11 13:39:34;;;;;;;20.08;12.10;;;15.90;1.00;;;;;;6078339;23;20034;-86
2022/10/11 13:42:30;;;;;;;26.08;12.77;;;15.80;1.00;;;;;;6097445;23;20410;-84
2022/10/11 13:45:26;;;;;;;20.02;12.15;;;15.70;1.00;;;;;;6096193;23;20326;-83
2022/10/11 13:48:15;;;;;;;29.27;13.88;;;15.60;1.00;;;;;;6097299;23;20125;-85
2022/10/11 13:51:25;;;;;;;26.25;11.65;;;15.40;1.00;;;;;;6076094;23;20034;-84
2022/10/11 13:54:14;;;;;;;22.17;10.95;;;15.40;1.00;;;;;;6097087;23;20085;-85
2022/10/11 13:57:02;;;;;;;19.48;10.93;;;15.50;1.00;;;;;;6097189;23;20026;-85
2022/10/11 13:59:55;;;;;;;17.77;11.30;;;15.50;1.00;;;;;;6098880;23;20378;-89
2022/10/11 14:03:12;;;;;;;25.20;11.90;;;15.60;1.00;;;;;;6078306;23;20026;-87
2022/10/11 14:05:59;;;;;;;26.98;11.25;;;15.50;1.00;;;;;;6077595;23;20418;-87
2022/10/11 14:08:55;;;;;;;23.08;10.85;;;15.50;1.00;;;;;;6078041;23;20093;-85
2022/10/11 14:11:43;;;;;;;24.70;11.43;;;15.60;1.00;;;;;;6076916;23;20030;-85
2022/10/11 14:14:34;;;;;;;21.25;10.68;;;15.50;1.00;;;;;;6078821;23;20037;-87
2022/10/11 14:17:44;;;;;;;25.33;12.65;;;15.50;1.00;;;;;;6076656;23;20026;-88
2022/10/11 14:20:39;;;;;;;21.17;10.85;;;15.50;1.00;;;;;;6077220;23;20023;-86
2022/10/11 14:23:27;;;;;;;20.67;10.75;;;15.70;1.00;;;;;;6096060;23;20041;-83
2022/10/11 14:26:15;;;;;;;20.27;11.13;;;15.80;1.00;;;;;;6097523;23;20410;-84
2022/10/11 14:29:16;;;;;;;20.42;10.65;;;15.80;1.00;;;;;;6078165;23;20030;-84
2022/10/11 14:32:12;;;;;;;18.48;10.52;;;15.80;1.00;;;;;;6098872;23;20124;-84
2022/10/11 14:35:00;;;;;;;23.10;10.70;;;15.90;1.00;;;;;;6076576;23;20022;-84
2022/10/11 14:37:48;;;;;;;17.15;9.30;;;15.80;1.00;;;;;;6072843;23;20030;-87
2022/10/11 14:40:35;;;;;;;21.30;10.30;;;16.00;1.00;;;;;;6110220;23;20085;-87
2022/10/11 14:43:24;;;;;;;19.77;9.63;;;16.30;99.90;;;;;;6110973;23;20495;-87
2022/10/11 14:46:29;;;;;;;18.50;9.98;;;16.30;99.90;;;;;;6095819;23;20092;-86
2022/10/11 14:49:23;;;;;;;20.52;10.35;;;16.10;99.90;;;;;;6099659;23;20026;-86
2022/10/11 14:52:12;;;;;;;20.73;10.15;;;16.10;99.90;;;;;;6101155;23;20034;-87
2022/10/11 14:55:00;;;;;;;14.82;9.13;;;16.20;99.90;;;;;;6091273;23;20026;-88
2022/10/11 14:57:48;;;;;;;16.63;9.25;;;16.00;99.90;;;;;;6112624;23;20036;-88
2022/10/11 15:00:37;;;;;;;18.10;9.30;;;16.00;99.90;;;;;;6114251;23;20030;-86
2022/10/11 15:03:29;;;;;;;15.00;10.13;;;15.90;99.90;;;;;;6110173;23;20056;-88